Latest Coastal Weather Observations for Larapuna (Eddystone Point)

IDT60701

Issued at 2:42 pm EDT Sunday 22 January 2017 (issued every 10 minutes, with the page automatically refreshed every 10 minutes)

About coastal observations | Map of coastal stations | Coastal observations for TAS | Marine services | Other Formats
Station Details ID: 092045 Name: LARAPUNA (EDDYSTONE POINT) Lat: -40.99 Lon: 148.35 Height: 19.7 m
Data from the previous 72 hours. | See also: Recent months at Larapuna (Eddystone Point)
Date/Time
EDT
Temp
°C
Wind Pressure Rain since
9am
mm
Weather Cloud Vis
km
Sea
Height
m
Swell
Dir  Spd
kts
Gust
kts
hPa Trend Height
m
Period
s
Dir
22/02:30pm 22.3 NW 14 17 1013.4 - 0.0 - - - - - - -
22/02:00pm 20.6 NNW 15 19 1013.6 - 0.0 - - - - - - -
22/01:30pm 21.2 NNW 14 20 1013.9 - 0.0 - - - - - - -
22/01:00pm 19.4 NNW 17 22 1014.1 - 0.0 - - - - - - -
22/12:30pm 19.0 N 18 23 1014.3 - 0.0 - - - - - - -
22/12:00pm 19.2 NNW 18 22 1014.5 - 0.0 - - - - - - -
22/11:30am 18.9 N 14 17 1014.9 - 0.0 - - - - - - -
22/11:00am 19.2 N 11 14 1015.0 - 0.0 - - - - - - -
22/10:30am 19.6 N 10 12 1015.2 - 0.0 - - - - - - -
22/10:00am 18.9 N 7 9 1015.4 - 0.0 - - - - - - -
22/09:30am 19.2 N 5 6 1015.5 - 0.0 - - - - - - -
22/09:00am 19.4 E 4 5 1015.8 - 0.0 - - - - - - -
22/08:30am 18.0 SSW 4 4 1015.7 - 0.0 - - - - - - -
22/08:00am 17.1 SW 6 7 1015.6 - 0.0 - - - - - - -
22/07:30am 16.1 SW 7 8 1015.2 - 0.0 - - - - - - -
22/07:00am 15.1 SW 8 9 1015.0 - 0.0 - - - - - - -
22/06:30am 14.4 SW 9 10 1014.9 - 0.0 - - - - - - -
22/06:00am 14.4 SW 10 11 1014.5 - 0.0 - - - - - - -
22/05:30am 14.7 SSW 11 12 1014.4 - 0.0 - - - - - - -
22/05:00am 14.6 SSW 10 11 1013.8 - 0.0 - - - - - - -
22/04:30am 14.9 SSW 11 13 1013.4 - 0.0 - - - - - - -
22/04:00am 15.1 SSW 10 13 1013.3 - 0.0 - - - - - - -
22/03:30am 15.4 SSW 12 14 1013.3 - 0.0 - - - - - - -
22/03:00am 15.6 SSW 15 17 1013.3 - 0.0 - - - - - - -
22/02:30am 15.9 SSW 15 18 1013.3 - 0.0 - - - - - - -
22/02:00am 15.8 SSW 15 17 1013.4 - 0.0 - - - - - - -
22/01:30am 15.9 SSW 15 18 1013.3 - 0.0 - - - - - - -
22/01:00am 15.8 SSW 15 17 1013.5 - 0.0 - - - - - - -
22/12:30am 15.3 SW 13 16 1013.3 - 0.0 - - - - - - -
22/12:00am 15.2 WSW 9 11 1013.4 - 0.0 - - - - - - -
 
Date/Time
EDT
Temp
°C
Wind Pressure Rain since
9am
mm
Weather Cloud Vis
km
Sea
Height
m
Swell
Dir  Spd
kts
Gust
kts
hPa Trend Height
m
Period
s
Dir
21/11:30pm 15.3 WSW 7 9 1013.3 - 0.0 - - - - - - -
21/11:00pm 15.9 WSW 11 14 1013.3 - 0.0 - - - - - - -
21/10:30pm 16.3 W 14 18 1013.0 - 0.0 - - - - - - -
21/10:00pm 16.3 W 13 19 1012.7 - 0.0 - - - - - - -
21/09:30pm 16.4 W 13 19 1012.5 - 0.0 - - - - - - -
21/09:00pm 16.7 WNW 15 19 1012.3 - 0.0 - - - - - - -
21/08:30pm 17.2 WNW 16 22 1012.0 - 0.0 - - - - - - -
21/08:00pm 17.9 WNW 17 23 1011.8 - 0.0 - - - - - - -
21/07:30pm 18.8 WNW 16 22 1011.4 - 0.0 - - - - - - -
21/07:00pm 19.5 WNW 18 24 1011.1 - 0.0 - - - - - - -
21/06:30pm 20.5 WNW 17 23 1010.8 - 0.0 - - - - - - -
21/06:00pm 20.2 WNW 16 22 1010.8 - 0.0 - - - - - - -
21/05:52pm 21.3 WNW 16 26 1010.7 - 0.0 - - - - - - -
21/05:30pm 21.4 WNW 16 23 1010.8 - 0.0 - - - - - - -
21/05:00pm 21.6 WNW 16 24 1010.7 - 0.0 - - - - - - -
21/04:30pm 21.8 WNW 16 23 1010.7 - 0.0 - - - - - - -
21/04:00pm 21.7 NW 18 25 1010.7 - 0.0 - - - - - - -
21/03:30pm 21.0 NW 18 23 1010.8 - 0.0 - - - - - - -
21/03:00pm 18.8 NNW 15 22 1011.0 - 0.0 - - - - - - -
21/02:30pm 19.5 NNW 19 24 1011.0 - 0.0 - - - - - - -
21/02:00pm 19.5 N 17 21 1011.3 - 0.0 - - - - - - -
21/01:30pm 19.0 N 15 19 1011.4 - 0.0 - - - - - - -
21/01:00pm 18.8 N 14 17 1011.3 - 0.0 - - - - - - -
21/12:30pm 18.9 N 14 17 1011.1 - 0.0 - - - - - - -
21/12:00pm 18.8 N 13 15 1011.1 - 0.0 - - - - - - -
21/11:30am 18.4 N 11 14 1011.0 - 0.0 - - - - - - -
21/11:00am 17.5 NNE 6 8 1011.2 - 0.0 - - - - - - -
21/10:30am 18.7 ESE 5 6 1010.9 - 0.0 - - - - - - -
21/10:00am 17.7 S 6 8 1010.8 - 0.0 - - - - - - -
21/09:30am 18.0 S 11 13 1010.5 - 0.0 - - - - - - -
21/09:00am 17.4 SSW 9 12 1010.2 - 11.2 - - - - - - -
21/08:30am 16.1 SSW 8 10 1010.1 - 11.2 - - - - - - -
21/08:00am 14.9 SSW 9 11 1009.6 - 11.2 - - - - - - -
21/07:30am 13.8 SSW 11 14 1009.0 - 11.2 - - - - - - -
21/07:00am 13.0 SSW 13 17 1008.3 - 11.2 - - - - - - -
21/06:30am 12.8 SSW 14 18 1007.6 - 11.2 - - - - - - -
21/06:00am 12.4 SSW 14 16 1007.2 - 11.2 - - - - - - -
21/05:30am 12.9 SSW 12 15 1006.6 - 11.2 - - - - - - -
21/05:00am 12.4 SSW 11 13 1006.2 - 11.2 - - - - - - -
21/04:30am 11.1 SW 5 6 1005.8 - 11.2 - - - - - - -
21/04:00am 11.6 WSW 4 5 1005.4 - 11.2 - - - - - - -
21/03:30am 11.7 W 4 5 1004.9 - 11.2 - - - - - - -
21/03:00am 12.2 SW 4 5 1004.7 - 11.2 - - - - - - -
21/02:30am 11.6 WSW 7 8 1004.7 - 11.2 - - - - - - -
21/02:00am 12.9 SW 8 9 1004.5 - 11.2 - - - - - - -
21/01:30am 13.0 SSW 8 9 1004.3 - 11.2 - - - - - - -
21/01:00am 12.7 SW 8 9 1004.2 - 11.2 - - - - - - -
21/12:30am 12.5 SW 7 9 1004.3 - 11.2 - - - - - - -
21/12:00am 13.3 SSW 8 9 1003.9 - 11.2 - - - - - - -
 
Date/Time
EDT
Temp
°C
Wind Pressure Rain since
9am
mm
Weather Cloud Vis
km
Sea
Height
m
Swell
Dir  Spd
kts
Gust
kts
hPa Trend Height
m
Period
s
Dir
20/11:30pm 13.0 SSW 9 11 1003.7 - 11.2 - - - - - - -
20/11:00pm 12.5 WSW 5 7 1003.8 - 11.2 - - - - - - -
20/10:30pm 14.1 SSW 9 11 1003.1 - 11.2 - - - - - - -
20/10:00pm 14.5 S 11 13 1002.8 - 11.2 - - - - - - -
20/09:30pm 15.0 S 18 21 1002.6 - 11.2 - - - - - - -
20/09:00pm 15.0 S 19 22 1001.6 - 11.2 - - - - - - -
20/08:30pm 15.3 S 18 21 1000.7 - 11.2 - - - - - - -
20/08:00pm 15.7 S 19 23 1000.2 - 11.2 - - - - - - -
20/07:30pm 16.3 S 19 22 999.8 - 11.2 - - - - - - -
20/07:00pm 15.6 S 25 29 998.5 - 11.2 - - - - - - -
20/06:30pm 16.3 S 25 30 997.6 - 11.2 - - - - - - -
20/06:00pm 14.7 S 32 40 996.3 - 11.2 - - - - - - -
20/05:30pm 14.5 S 38 46 994.8 - 11.2 - - - - - - -
20/05:03pm 15.5 S 40 50 993.9 - 11.2 - - - - - - -
20/05:00pm 15.7 S 42 51 993.5 - 11.2 - - - - - - -
20/04:30pm 15.6 S 39 48 992.8 - 11.2 - - - - - - -
20/04:00pm 15.2 S 41 53 992.6 - 11.2 - - - - - - -
20/03:30pm 15.1 S 45 56 991.6 - 11.2 - - - - - - -
20/03:00pm 15.1 S 43 58 990.4 - 11.2 - - - - - - -
20/02:36pm 15.1 S 45 55 989.7 - 11.2 - - - - - - -
20/02:30pm 15.2 S 47 55 989.7 - 11.2 - - - - - - -
20/02:00pm 15.0 SSW 48 61 989.2 - 11.2 - - - - - - -
20/01:30pm 14.5 SSW 49 60 988.6 - 11.2 - - - - - - -
20/01:00pm 14.7 SSW 45 56 987.7 - 11.2 - - - - - - -
20/12:43pm 15.1 SSW 46 61 987.5 - 11.2 - - - - - - -
20/12:41pm 14.9 SSW 45 61 986.7 - 11.2 - - - - - - -
20/12:38pm 15.0 SSW 43 53 987.8 - 11.2 - - - - - - -
20/12:30pm 15.3 SSW 44 52 987.7 - 11.2 - - - - - - -
20/12:15pm 15.5 SSW 43 53 987.6 - 11.2 - - - - - - -
20/12:00pm 15.1 SSW 39 48 987.6 - 11.2 Recent precip. - - - - - -
20/11:57am 15.1 SSW 39 48 987.6 - 11.2 - - - - - - -
20/11:32am 15.4 SW 27 37 987.8 - 11.2 - - - - - - -
20/11:30am 15.3 WSW 24 35 988.0 - 11.2 - - - - - - -
20/11:21am 15.6 SW 23 36 988.4 - 11.0 - - - - - - -
20/11:19am 15.8 SW 21 36 988.1 - 10.8 - - - - - - -
20/11:15am 16.0 WSW 15 27 988.3 - 10.8 - - - - - - -
20/11:14am 16.2 WSW 14 24 988.4 - 10.8 - - - - - - -
20/11:00am 17.1 W 9 13 988.6 - 10.0 - - - - - - -
20/10:30am 17.2 W 6 8 989.5 - 9.0 - - - - - - -
20/10:00am 16.9 WSW 7 10 990.0 - 8.0 - - - - - - -
20/09:30am 17.0 NNE 11 15 990.7 - 4.4 - - - - - - -
20/09:00am 16.9 NE 21 24 991.8 - 20.6 Rain - - - - - -
20/08:30am 16.8 NE 21 25 992.5 - 16.4 - - - - - - -
20/08:00am 16.5 ENE 23 30 992.8 - 9.8 - - - - - - -
20/07:30am 16.3 ENE 25 32 993.4 - 7.8 - - - - - - -
20/07:00am 16.3 NE 24 33 995.3 - 5.0 - - - - - - -
20/06:30am 16.0 ENE 28 33 996.1 - 3.4 - - - - - - -
20/06:00am 16.0 ENE 25 31 997.8 - 2.0 Rain - - - - - -
20/05:30am 16.5 ENE 24 29 999.0 - 0.0 - - - - - - -
20/05:00am 17.0 ENE 20 24 1000.0 - 0.0 - - - - - - -
20/04:30am 17.0 ENE 19 23 1001.6 - 0.0 - - - - - - -
20/04:00am 16.9 ENE 17 21 1002.6 - 0.0 - - - - - - -
20/03:30am 16.7 ENE 19 22 1003.3 - 0.0 - - - - - - -
20/03:00am 16.6 ENE 18 22 1004.6 - 0.0 - - - - - - -
20/02:30am 16.5 NE 17 20 1005.8 - 0.0 - - - - - - -
20/02:00am 16.4 ENE 19 22 1004.9 - 0.0 - - - - - - -
20/01:30am 16.3 NE 19 22 1005.9 - 0.0 - - - - - - -
20/01:00am 16.2 NE 19 23 1005.7 - 0.0 - - - - - - -
20/12:30am 16.1 NE 19 22 1006.4 - 0.0 - - - - - - -
20/12:00am 16.1 ENE 18 21 1007.6 - 0.0 - - - - - - -
 
Date/Time
EDT
Temp
°C
Wind Pressure Rain since
9am
mm
Weather Cloud Vis
km
Sea
Height
m
Swell
Dir  Spd
kts
Gust
kts
hPa Trend Height
m
Period
s
Dir
19/11:30pm 16.0 ENE 17 19 1008.2 - 0.0 - - - - - - -
19/11:00pm 15.8 ENE 17 21 1008.6 - 0.0 - - - - - - -
19/10:30pm 15.8 ENE 18 22 1009.2 - 0.0 - - - - - - -
19/10:00pm 15.6 ENE 16 19 1010.2 - 0.0 - - - - - - -
19/09:30pm 15.5 ENE 13 16 1010.9 - 0.0 - - - - - - -
19/09:00pm 15.3 ENE 12 15 1011.3 - 0.0 - - - - - - -
19/08:30pm 15.3 ENE 11 14 1011.7 - 0.0 - - - - - - -
19/08:00pm 15.4 ENE 11 14 1012.2 - 0.0 - - - - - - -
19/07:30pm 15.6 ENE 10 13 1012.4 - 0.0 - - - - - - -
19/07:00pm 16.2 ENE 9 11 1012.6 - 0.0 - - - - - - -
19/06:30pm 16.7 ENE 9 11 1012.4 - 0.0 - - - - - - -
19/06:00pm 16.9 ENE 10 12 1012.8 - 0.0 - - - - - - -
19/05:30pm 17.4 ENE 12 14 1012.7 - 0.0 - - - - - - -
19/05:00pm 18.2 ENE 12 14 1013.1 - 0.0 - - - - - - -
19/04:30pm 18.1 E 9 12 1013.8 - 0.0 - - - - - - -
19/04:00pm 18.9 E 8 10 1014.4 - 0.0 - - - - - - -
19/03:30pm 18.6 ESE 9 11 1014.7 - 0.0 - - - - - - -
19/03:00pm 18.5 ESE 9 12 1015.1 - 0.0 - - - - - - -

Other Formats:

Comma delimited format used in spreadsheet applications
http://www.bom.gov.au/fwo/IDT60701/IDT60701.94983.axf

JavaScript Object Notation format (JSON) in row-major order
http://www.bom.gov.au/fwo/IDT60701/IDT60701.94983.json